Time;durP1;ratioP1;P1;durP2;ratioP2;P2;SDS_P1;SDS_P2;PMS_P1;PMS_P2;Temp;Humidity;BMP_temperature;BMP_pressure;BME280_temperature;BME280_humidity;BME280_pressure;Samples;Min_cycle;Max_cycle;Signal;HPM_P1;HPM_P2
2023/06/29 00:02:06;;;;;;;2.43;2.23;;;;;;;;;;5089300;28;20419;-70
2023/06/29 00:04:34;;;;;;;2.50;2.20;;;;;;;;;;5087658;28;20440;-70
2023/06/29 00:07:02;;;;;;;1.90;1.90;;;;;;;;;;5077310;28;20432;-70
2023/06/29 00:09:29;;;;;;;1.53;1.53;;;;;;;;;;5084082;28;20432;-70
2023/06/29 00:11:55;;;;;;;2.37;1.97;;;;;;;;;;5087678;28;20480;-70
2023/06/29 00:14:21;;;;;;;2.23;2.13;;;;;;;;;;5092482;28;20503;-70
2023/06/29 00:16:50;;;;;;;6.27;2.43;;;;;;;;;;5091176;28;20597;-70
2023/06/29 00:19:16;;;;;;;1.80;1.80;;;;;;;;;;5091909;28;20416;-71
2023/06/29 00:21:42;;;;;;;2.70;2.43;;;;;;;;;;5092272;28;20489;-70
2023/06/29 00:24:11;;;;;;;2.47;2.30;;;;;;;;;;5091719;28;20799;-70
2023/06/29 00:26:38;;;;;;;7.43;2.50;;;;;;;;;;5073944;28;20938;-71
2023/06/29 00:29:04;;;;;;;4.80;1.87;;;;;;;;;;5093086;28;20579;-71
2023/06/29 00:31:30;;;;;;;2.87;2.60;;;;;;;;;;5074431;28;20486;-70
2023/06/29 00:33:55;;;;;;;2.57;2.47;;;;;;;;;;5073749;28;20444;-71
2023/06/29 00:36:22;;;;;;;2.37;2.17;;;;;;;;;;5092449;28;20979;-70
2023/06/29 00:38:48;;;;;;;1.73;1.63;;;;;;;;;;5091534;28;20447;-70
2023/06/29 00:41:14;;;;;;;2.40;2.30;;;;;;;;;;5092813;28;20419;-71
2023/06/29 00:43:42;;;;;;;2.33;2.17;;;;;;;;;;5091976;28;20799;-70
2023/06/29 00:46:09;;;;;;;1.90;1.90;;;;;;;;;;5091190;28;20514;-70
2023/06/29 00:48:38;;;;;;;2.30;2.17;;;;;;;;;;5082799;28;20469;-71
2023/06/29 00:51:04;;;;;;;2.30;2.00;;;;;;;;;;5071556;28;20421;-69
2023/06/29 00:53:30;;;;;;;2.33;2.20;;;;;;;;;;5071265;28;20499;-71
2023/06/29 00:55:56;;;;;;;1.60;1.60;;;;;;;;;;5053988;28;20996;-70
2023/06/29 00:58:22;;;;;;;2.53;2.17;;;;;;;;;;5071589;28;21103;-70
2023/06/29 01:00:48;;;;;;;2.67;1.80;;;;;;;;;;5072081;28;20436;-70
2023/06/29 01:03:14;;;;;;;1.97;1.87;;;;;;;;;;5071117;28;20476;-70
2023/06/29 01:05:41;;;;;;;2.10;1.93;;;;;;;;;;5071766;28;20893;-70
2023/06/29 01:08:12;;;;;;;1.70;1.60;;;;;;;;;;5070805;28;20539;-70
2023/06/29 01:10:38;;;;;;;1.70;1.70;;;;;;;;;;5071137;28;20433;-71
2023/06/29 01:13:05;;;;;;;2.60;2.10;;;;;;;;;;5070915;28;21488;-70
2023/06/29 01:15:31;;;;;;;6.20;1.77;;;;;;;;;;5071992;28;20472;-70
2023/06/29 01:17:59;;;;;;;3.07;2.10;;;;;;;;;;5053765;28;20429;-70
2023/06/29 01:20:32;;;;;;;5.50;2.50;;;;;;;;;;5070307;28;20425;-71
2023/06/29 01:23:10;;;;;;;7.27;3.50;;;;;;;;;;5069679;28;20452;-70
2023/06/29 01:25:37;;;;;;;5.40;4.90;;;;;;;;;;5052164;28;20421;-70
2023/06/29 01:28:07;;;;;;;6.13;5.73;;;;;;;;;;5070804;28;20417;-70
2023/06/29 01:30:33;;;;;;;5.50;4.47;;;;;;;;;;5071095;28;20430;-70
2023/06/29 01:32:59;;;;;;;4.73;4.40;;;;;;;;;;5070294;28;20965;-70
2023/06/29 01:35:25;;;;;;;12.57;5.10;;;;;;;;;;5070952;28;20464;-70
2023/06/29 01:37:57;;;;;;;4.60;4.20;;;;;;;;;;5069012;28;20449;-70
2023/06/29 01:40:25;;;;;;;6.03;4.10;;;;;;;;;;5052027;28;20436;-70
2023/06/29 01:42:53;;;;;;;2.50;2.50;;;;;;;;;;5070453;28;20434;-70
2023/06/29 01:45:21;;;;;;;3.17;2.90;;;;;;;;;;5071448;28;20922;-70
2023/06/29 01:47:47;;;;;;;2.80;2.70;;;;;;;;;;5070652;28;20438;-70
2023/06/29 01:50:14;;;;;;;4.63;3.00;;;;;;;;;;5070772;28;20434;-70
2023/06/29 01:52:40;;;;;;;7.87;3.00;;;;;;;;;;5068672;28;20523;-70
2023/06/29 01:55:09;;;;;;;3.00;2.83;;;;;;;;;;5070163;28;20440;-70
2023/06/29 01:57:35;;;;;;;6.07;2.40;;;;;;;;;;5070205;28;20438;-71
2023/06/29 02:00:03;;;;;;;2.33;2.23;;;;;;;;;;5070442;28;20429;-70
2023/06/29 02:02:29;;;;;;;2.97;2.83;;;;;;;;;;5068071;28;20470;-70
2023/06/29 02:04:55;;;;;;;3.07;2.80;;;;;;;;;;5070898;28;20897;-70
2023/06/29 02:07:21;;;;;;;2.47;2.37;;;;;;;;;;5069298;28;20471;-70
2023/06/29 02:09:47;;;;;;;2.93;2.30;;;;;;;;;;5071083;28;20478;-71
2023/06/29 02:12:13;;;;;;;3.77;2.83;;;;;;;;;;5068037;28;20481;-70
2023/06/29 02:14:39;;;;;;;2.77;2.60;;;;;;;;;;5069552;28;20452;-71
2023/06/29 02:17:05;;;;;;;2.00;2.00;;;;;;;;;;5069405;28;20449;-70
2023/06/29 02:19:31;;;;;;;2.30;2.20;;;;;;;;;;5068174;28;20518;-71
2023/06/29 02:21:57;;;;;;;2.53;2.20;;;;;;;;;;5069766;28;20957;-70
2023/06/29 02:24:23;;;;;;;3.23;2.30;;;;;;;;;;5070058;28;20544;-70
2023/06/29 02:26:49;;;;;;;2.30;2.10;;;;;;;;;;5070059;28;20432;-70
2023/06/29 02:29:15;;;;;;;2.77;2.67;;;;;;;;;;5069636;28;20929;-70
2023/06/29 02:31:41;;;;;;;15.17;2.40;;;;;;;;;;5069607;28;20823;-70
2023/06/29 02:34:07;;;;;;;4.13;2.80;;;;;;;;;;5069720;28;20441;-70
2023/06/29 02:36:33;;;;;;;3.37;2.50;;;;;;;;;;5069251;28;20771;-70
2023/06/29 02:38:59;;;;;;;5.93;3.00;;;;;;;;;;5051475;28;20449;-70
2023/06/29 02:41:25;;;;;;;3.80;2.10;;;;;;;;;;5070251;28;20428;-71
2023/06/29 02:43:52;;;;;;;3.17;2.40;;;;;;;;;;5070109;28;20874;-70
2023/06/29 02:46:18;;;;;;;5.50;2.53;;;;;;;;;;5069187;28;20872;-71
2023/06/29 02:48:44;;;;;;;2.10;2.00;;;;;;;;;;5068321;28;20538;-70
2023/06/29 02:51:10;;;;;;;2.67;2.33;;;;;;;;;;5069678;28;20421;-70
2023/06/29 02:53:36;;;;;;;3.67;3.00;;;;;;;;;;5069122;28;20591;-66
2023/06/29 02:56:02;;;;;;;3.40;3.20;;;;;;;;;;5070072;28;20417;-66
2023/06/29 02:58:28;;;;;;;2.53;2.33;;;;;;;;;;5068828;28;20433;-68
2023/06/29 03:00:54;;;;;;;5.03;2.33;;;;;;;;;;5069128;28;20441;-69
2023/06/29 03:03:20;;;;;;;8.63;2.57;;;;;;;;;;5068970;28;20469;-67
2023/06/29 03:05:46;;;;;;;9.03;2.57;;;;;;;;;;5069352;28;20432;-67
2023/06/29 03:08:12;;;;;;;2.33;2.33;;;;;;;;;;5069220;28;20520;-66
2023/06/29 03:10:38;;;;;;;5.67;3.07;;;;;;;;;;5068919;28;20456;-66
2023/06/29 03:13:04;;;;;;;2.63;2.43;;;;;;;;;;5069104;28;21072;-66
2023/06/29 03:15:30;;;;;;;3.60;2.70;;;;;;;;;;5068833;28;20440;-66
2023/06/29 03:17:56;;;;;;;3.20;3.10;;;;;;;;;;5068670;28;20449;-66
2023/06/29 03:20:22;;;;;;;2.97;2.40;;;;;;;;;;5068559;28;20440;-66
2023/06/29 03:22:48;;;;;;;9.10;4.80;;;;;;;;;;5068554;28;20921;-66
2023/06/29 03:25:14;;;;;;;2.83;2.53;;;;;;;;;;5069478;28;20413;-66
2023/06/29 03:27:40;;;;;;;2.90;2.50;;;;;;;;;;5068793;28;20516;-67
2023/06/29 03:30:06;;;;;;;2.40;2.30;;;;;;;;;;5068310;28;20949;-69
2023/06/29 03:32:32;;;;;;;2.53;2.43;;;;;;;;;;5068618;28;20835;-70
2023/06/29 03:34:58;;;;;;;3.33;2.40;;;;;;;;;;5069188;28;20500;-66
2023/06/29 03:37:24;;;;;;;5.53;3.10;;;;;;;;;;5068832;28;20517;-67
2023/06/29 03:39:50;;;;;;;5.80;2.53;;;;;;;;;;5068360;28;20443;-70
2023/06/29 03:42:16;;;;;;;3.00;2.80;;;;;;;;;;5068946;28;20446;-66
2023/06/29 03:44:42;;;;;;;3.03;2.70;;;;;;;;;;5069307;28;20413;-71
2023/06/29 03:47:08;;;;;;;2.70;2.50;;;;;;;;;;5069148;28;20425;-67
2023/06/29 03:49:34;;;;;;;2.67;2.57;;;;;;;;;;5072315;28;20500;-66
2023/06/29 03:52:00;;;;;;;5.20;2.67;;;;;;;;;;5071878;28;20873;-67
2023/06/29 03:54:27;;;;;;;8.33;2.90;;;;;;;;;;5073205;28;20433;-67
2023/06/29 03:56:53;;;;;;;2.53;2.40;;;;;;;;;;5072697;28;20433;-67
2023/06/29 03:59:19;;;;;;;3.40;3.17;;;;;;;;;;5073565;28;20917;-69
2023/06/29 04:01:45;;;;;;;2.63;2.50;;;;;;;;;;5072325;28;20463;-67
2023/06/29 04:04:11;;;;;;;2.60;2.50;;;;;;;;;;5073018;28;20437;-67
2023/06/29 04:06:37;;;;;;;4.20;2.80;;;;;;;;;;5071554;28;20433;-66
2023/06/29 04:09:03;;;;;;;3.83;3.53;;;;;;;;;;5072173;28;20510;-66
2023/06/29 04:11:29;;;;;;;2.93;2.83;;;;;;;;;;5072399;28;20456;-66
2023/06/29 04:13:55;;;;;;;3.30;3.13;;;;;;;;;;5072178;28;20449;-66
2023/06/29 04:16:21;;;;;;;3.30;3.10;;;;;;;;;;5070899;28;20448;-67
2023/06/29 04:18:47;;;;;;;3.00;2.90;;;;;;;;;;5072255;28;20428;-66
2023/06/29 04:21:13;;;;;;;2.73;2.63;;;;;;;;;;5072721;28;20471;-66
2023/06/29 04:23:39;;;;;;;2.50;2.40;;;;;;;;;;5072413;28;20421;-66
2023/06/29 04:26:05;;;;;;;4.10;2.80;;;;;;;;;;5070595;28;20442;-66
2023/06/29 04:28:34;;;;;;;3.07;2.80;;;;;;;;;;5070738;28;20441;-66
2023/06/29 04:31:00;;;;;;;2.87;2.77;;;;;;;;;;5052558;28;20445;-66
2023/06/29 04:33:26;;;;;;;3.50;2.80;;;;;;;;;;5071364;28;20996;-67
2023/06/29 04:35:53;;;;;;;5.13;2.80;;;;;;;;;;5071957;28;20478;-66
2023/06/29 04:38:25;;;;;;;2.90;2.67;;;;;;;;;;5072214;28;20429;-66
2023/06/29 04:40:59;;;;;;;3.03;2.63;;;;;;;;;;5070847;28;20437;-67
2023/06/29 04:43:25;;;;;;;3.70;3.07;;;;;;;;;;5072616;28;20945;-67
2023/06/29 04:45:51;;;;;;;2.73;2.60;;;;;;;;;;5070678;28;20473;-66
2023/06/29 04:48:17;;;;;;;4.00;3.00;;;;;;;;;;5071377;28;20984;-66
2023/06/29 04:50:43;;;;;;;2.80;2.70;;;;;;;;;;5070879;28;20425;-66
2023/06/29 04:53:09;;;;;;;7.93;3.33;;;;;;;;;;5070943;28;20481;-66
2023/06/29 04:55:37;;;;;;;11.53;3.20;;;;;;;;;;5071160;28;20441;-66
2023/06/29 04:58:03;;;;;;;6.50;3.20;;;;;;;;;;5071033;28;20850;-66
2023/06/29 05:00:30;;;;;;;2.87;2.77;;;;;;;;;;5070942;28;21009;-66
2023/06/29 05:02:56;;;;;;;3.47;3.17;;;;;;;;;;5071194;28;20540;-66
2023/06/29 05:05:22;;;;;;;3.80;3.00;;;;;;;;;;5071635;28;20434;-66
2023/06/29 05:07:50;;;;;;;4.40;2.73;;;;;;;;;;5071676;28;20418;-66
2023/06/29 05:10:16;;;;;;;3.27;2.97;;;;;;;;;;5069688;28;20468;-66
2023/06/29 05:12:42;;;;;;;6.27;2.67;;;;;;;;;;5069654;28;20505;-66
2023/06/29 05:15:08;;;;;;;3.87;2.60;;;;;;;;;;5071370;28;20918;-66
2023/06/29 05:17:34;;;;;;;5.97;3.60;;;;;;;;;;5069926;28;20510;-67
2023/06/29 05:20:00;;;;;;;3.23;3.13;;;;;;;;;;5071125;28;20433;-66
2023/06/29 05:22:26;;;;;;;11.83;2.97;;;;;;;;;;5070751;28;20484;-66
2023/06/29 05:24:52;;;;;;;7.43;2.80;;;;;;;;;;5071855;28;20409;-66
2023/06/29 05:27:17;;;;;;;2.50;2.50;;;;;;;;;;5069525;28;20892;-66
2023/06/29 05:29:44;;;;;;;2.80;2.70;;;;;;;;;;5071543;28;20441;-66
2023/06/29 05:32:09;;;;;;;2.90;2.87;;;;;;;;;;5069988;28;20564;-66
2023/06/29 05:34:35;;;;;;;3.63;3.20;;;;;;;;;;5070647;28;20591;-67
2023/06/29 05:37:02;;;;;;;7.20;3.40;;;;;;;;;;5070969;28;20430;-66
2023/06/29 05:39:28;;;;;;;4.10;3.70;;;;;;;;;;5071612;28;20425;-66
2023/06/29 05:41:54;;;;;;;3.40;3.20;;;;;;;;;;5070445;28;20460;-66
2023/06/29 05:44:20;;;;;;;10.53;5.03;;;;;;;;;;5070786;28;20433;-67
2023/06/29 05:46:46;;;;;;;3.77;3.10;;;;;;;;;;5069921;28;20473;-67
2023/06/29 05:49:12;;;;;;;6.00;3.17;;;;;;;;;;5070833;28;20468;-67
2023/06/29 05:51:38;;;;;;;7.47;3.13;;;;;;;;;;5070660;28;20433;-67
2023/06/29 05:54:07;;;;;;;2.37;2.27;;;;;;;;;;5070377;28;20503;-67
2023/06/29 05:56:33;;;;;;;5.07;3.10;;;;;;;;;;5051130;28;20853;-66
2023/06/29 05:58:59;;;;;;;2.40;2.33;;;;;;;;;;5069648;28;20456;-67
2023/06/29 06:01:25;;;;;;;2.30;2.30;;;;;;;;;;5070863;28;20417;-68
2023/06/29 06:03:51;;;;;;;2.93;2.73;;;;;;;;;;5069754;28;20460;-67
2023/06/29 06:06:17;;;;;;;3.83;3.13;;;;;;;;;;5070314;28;20437;-66
2023/06/29 06:08:43;;;;;;;3.20;3.00;;;;;;;;;;5069430;28;20441;-66
2023/06/29 06:11:09;;;;;;;3.73;2.93;;;;;;;;;;5070028;28;20491;-68
2023/06/29 06:13:35;;;;;;;2.33;2.20;;;;;;;;;;5068087;28;20485;-66
2023/06/29 06:16:01;;;;;;;2.40;2.30;;;;;;;;;;5070454;28;21021;-68
2023/06/29 06:18:27;;;;;;;2.73;2.53;;;;;;;;;;5069992;28;20772;-66
2023/06/29 06:20:53;;;;;;;3.50;3.20;;;;;;;;;;5068678;28;20517;-70
2023/06/29 06:23:19;;;;;;;3.00;2.73;;;;;;;;;;5069761;28;20818;-70
2023/06/29 06:25:45;;;;;;;6.70;2.57;;;;;;;;;;5070306;28;20421;-72
2023/06/29 06:28:11;;;;;;;6.70;3.30;;;;;;;;;;5069118;28;20438;-72
2023/06/29 06:30:38;;;;;;;3.10;2.83;;;;;;;;;;5069994;28;20425;-72
2023/06/29 06:33:04;;;;;;;12.87;3.60;;;;;;;;;;5068908;28;21040;-72
2023/06/29 06:35:31;;;;;;;11.53;5.63;;;;;;;;;;5066072;28;20520;-66
2023/06/29 06:37:57;;;;;;;5.20;3.63;;;;;;;;;;5068735;28;20495;-73
2023/06/29 06:40:23;;;;;;;6.47;3.00;;;;;;;;;;5068989;28;20457;-65
2023/06/29 06:42:49;;;;;;;7.33;4.17;;;;;;;;;;5068929;28;20456;-66
2023/06/29 06:45:16;;;;;;;8.50;3.00;;;;;;;;;;5068900;28;20495;-67
2023/06/29 06:47:42;;;;;;;11.17;3.10;;;;;;;;;;5066622;28;20442;-68
2023/06/29 06:50:08;;;;;;;5.80;3.80;;;;;;;;;;5068964;28;20421;-67
2023/06/29 06:52:34;;;;;;;3.17;2.70;;;;;;;;;;5068769;28;20488;-67
2023/06/29 06:55:01;;;;;;;16.03;3.27;;;;;;;;;;5069304;28;20425;-67
2023/06/29 06:57:27;;;;;;;5.33;3.30;;;;;;;;;;5062171;28;20450;-71
2023/06/29 06:59:53;;;;;;;5.00;3.40;;;;;;;;;;5067685;28;20532;-67
2023/06/29 07:02:19;;;;;;;8.53;3.40;;;;;;;;;;5064743;28;20525;-69
2023/06/29 07:04:45;;;;;;;3.70;3.40;;;;;;;;;;5047264;28;20933;-72
2023/06/29 07:07:11;;;;;;;4.03;3.07;;;;;;;;;;5065617;28;20436;-73
2023/06/29 07:09:38;;;;;;;3.37;3.20;;;;;;;;;;5066504;28;20891;-72
2023/06/29 07:12:04;;;;;;;6.40;3.60;;;;;;;;;;5066748;28;20470;-68
2023/06/29 07:14:31;;;;;;;4.83;3.57;;;;;;;;;;5056706;28;20453;-72
2023/06/29 07:16:57;;;;;;;9.67;4.50;;;;;;;;;;5061704;28;20493;-74
2023/06/29 07:19:23;;;;;;;14.63;4.20;;;;;;;;;;5066952;28;20516;-73
2023/06/29 07:21:49;;;;;;;7.83;3.90;;;;;;;;;;5053307;28;20988;-71
2023/06/29 07:24:15;;;;;;;5.30;4.13;;;;;;;;;;5065195;28;20437;-74
2023/06/29 07:26:41;;;;;;;4.70;3.83;;;;;;;;;;5066885;28;20422;-69
2023/06/29 07:29:08;;;;;;;11.93;4.60;;;;;;;;;;5067475;28;20425;-70
2023/06/29 07:31:34;;;;;;;17.47;4.40;;;;;;;;;;5067205;28;20505;-71
2023/06/29 07:34:00;;;;;;;14.27;4.53;;;;;;;;;;5066667;28;20429;-70
2023/06/29 07:36:27;;;;;;;4.47;4.07;;;;;;;;;;5067675;28;20429;-72
2023/06/29 07:38:55;;;;;;;5.80;3.97;;;;;;;;;;5067678;28;20516;-71
2023/06/29 07:41:22;;;;;;;9.77;4.10;;;;;;;;;;5066529;28;20983;-68
2023/06/29 07:43:52;;;;;;;5.47;3.90;;;;;;;;;;5067292;28;20917;-69
2023/06/29 07:46:18;;;;;;;11.13;3.93;;;;;;;;;;5068139;28;20887;-68
2023/06/29 07:48:44;;;;;;;5.20;3.43;;;;;;;;;;5065634;28;20477;-71
2023/06/29 07:51:10;;;;;;;12.27;4.93;;;;;;;;;;5055415;28;20444;-71
2023/06/29 07:53:36;;;;;;;6.22;3.63;;;;;;;;;;5061727;28;20553;-68
2023/06/29 07:56:02;;;;;;;11.13;4.43;;;;;;;;;;5052643;28;20707;-69
2023/06/29 07:58:28;;;;;;;5.97;4.20;;;;;;;;;;5062524;28;20445;-74
2023/06/29 08:00:55;;;;;;;5.70;3.77;;;;;;;;;;5067217;28;20850;-68
2023/06/29 08:03:21;;;;;;;7.83;4.30;;;;;;;;;;5067449;28;20426;-72
2023/06/29 08:05:47;;;;;;;5.37;3.50;;;;;;;;;;5068144;28;20551;-73
2023/06/29 08:08:13;;;;;;;6.40;3.70;;;;;;;;;;5061401;28;20492;-70
2023/06/29 08:10:39;;;;;;;10.40;3.40;;;;;;;;;;5037069;28;20448;-73
2023/06/29 08:13:05;;;;;;;5.70;3.40;;;;;;;;;;5060558;28;20484;-72
2023/06/29 08:15:31;;;;;;;7.07;3.60;;;;;;;;;;5063612;28;20937;-68
2023/06/29 08:17:57;;;;;;;8.80;4.05;;;;;;;;;;5064949;28;20476;-70
2023/06/29 08:20:23;;;;;;;5.13;3.37;;;;;;;;;;5062704;28;20323;-73
2023/06/29 08:22:49;;;;;;;4.70;3.57;;;;;;;;;;5054611;28;20429;-69
2023/06/29 08:25:15;;;;;;;2.73;2.63;;;;;;;;;;5052997;28;20504;-70
2023/06/29 08:27:42;;;;;;;3.50;2.83;;;;;;;;;;5061326;28;20457;-70
2023/06/29 08:30:08;;;;;;;5.30;3.10;;;;;;;;;;5069075;28;20509;-70
2023/06/29 08:32:34;;;;;;;3.93;3.00;;;;;;;;;;5065362;28;20597;-70
2023/06/29 08:35:00;;;;;;;3.30;3.20;;;;;;;;;;5071670;28;20930;-69
2023/06/29 08:37:28;;;;;;;4.20;3.47;;;;;;;;;;5070883;28;20445;-70
2023/06/29 08:39:54;;;;;;;6.00;3.00;;;;;;;;;;5070301;28;20441;-69
2023/06/29 08:42:20;;;;;;;9.63;3.20;;;;;;;;;;5072126;28;20441;-70
2023/06/29 08:44:46;;;;;;;7.63;3.00;;;;;;;;;;5071991;28;20463;-70
2023/06/29 08:47:12;;;;;;;4.53;3.60;;;;;;;;;;5071186;28;20527;-70
2023/06/29 08:49:39;;;;;;;4.20;3.67;;;;;;;;;;5085405;28;21005;-70
2023/06/29 08:52:06;;;;;;;2.87;2.60;;;;;;;;;;5092189;28;20471;-70
2023/06/29 08:54:34;;;;;;;3.97;3.17;;;;;;;;;;5092755;28;20429;-71
2023/06/29 08:57:01;;;;;;;9.63;3.27;;;;;;;;;;5084113;28;20523;-70
2023/06/29 08:59:28;;;;;;;7.40;3.20;;;;;;;;;;5084457;28;20589;-69
2023/06/29 09:01:54;;;;;;;9.23;2.70;;;;;;;;;;5090969;28;20980;-71
2023/06/29 09:04:20;;;;;;;12.47;3.20;;;;;;;;;;5091136;28;20943;-71
2023/06/29 09:06:47;;;;;;;6.53;2.73;;;;;;;;;;5092554;28;20421;-71
2023/06/29 09:09:13;;;;;;;3.17;2.43;;;;;;;;;;5091571;28;20423;-70
2023/06/29 09:11:39;;;;;;;3.17;2.97;;;;;;;;;;5092216;28;20421;-69
2023/06/29 09:14:08;;;;;;;10.37;3.40;;;;;;;;;;5091287;28;20491;-69
2023/06/29 09:16:35;;;;;;;2.97;2.67;;;;;;;;;;5091984;28;20997;-70
2023/06/29 09:19:03;;;;;;;4.10;3.70;;;;;;;;;;5089397;28;20460;-71
2023/06/29 09:21:29;;;;;;;2.87;2.67;;;;;;;;;;5091775;28;20912;-70
2023/06/29 09:23:59;;;;;;;4.10;2.63;;;;;;;;;;5091802;28;20490;-71
2023/06/29 09:26:28;;;;;;;2.50;2.50;;;;;;;;;;5091546;28;20531;-71
2023/06/29 09:28:59;;;;;;;4.70;2.67;;;;;;;;;;5090542;28;20432;-71
2023/06/29 09:31:32;;;;;;;2.47;2.20;;;;;;;;;;5091588;28;20521;-70
2023/06/29 09:34:15;;;;;;;2.50;2.37;;;;;;;;;;5090006;28;21022;-70
2023/06/29 09:36:41;;;;;;;13.00;2.63;;;;;;;;;;5088090;28;20431;-70
2023/06/29 09:39:07;;;;;;;6.10;3.20;;;;;;;;;;5089352;28;20433;-70
2023/06/29 09:41:45;;;;;;;3.03;2.47;;;;;;;;;;5091287;28;20939;-70
2023/06/29 09:44:11;;;;;;;5.10;3.00;;;;;;;;;;5091755;28;20416;-70
2023/06/29 09:46:41;;;;;;;3.70;2.30;;;;;;;;;;5090262;28;20609;-69
2023/06/29 09:49:10;;;;;;;5.03;2.50;;;;;;;;;;5076002;28;20523;-70
2023/06/29 09:51:36;;;;;;;3.63;3.27;;;;;;;;;;5069913;28;20517;-70
2023/06/29 09:54:02;;;;;;;7.83;2.70;;;;;;;;;;5070929;28;20445;-70
2023/06/29 09:56:30;;;;;;;6.23;2.97;;;;;;;;;;5071135;28;20424;-70
2023/06/29 09:58:57;;;;;;;2.70;2.50;;;;;;;;;;5069593;28;20451;-70
2023/06/29 10:01:28;;;;;;;2.37;2.27;;;;;;;;;;5068903;28;20430;-70
2023/06/29 10:03:54;;;;;;;4.23;2.90;;;;;;;;;;5069764;28;20444;-70
2023/06/29 10:06:22;;;;;;;3.00;2.90;;;;;;;;;;5070850;28;20801;-70
2023/06/29 10:08:51;;;;;;;6.33;2.67;;;;;;;;;;5070665;28;20414;-70
2023/06/29 10:11:17;;;;;;;6.53;2.60;;;;;;;;;;5070273;28;20448;-70
2023/06/29 10:13:48;;;;;;;2.80;2.60;;;;;;;;;;5068009;28;20484;-70
2023/06/29 10:16:15;;;;;;;6.13;2.80;;;;;;;;;;5069678;28;20465;-70
2023/06/29 10:18:42;;;;;;;3.40;2.73;;;;;;;;;;5069818;28;21060;-70
2023/06/29 10:21:08;;;;;;;2.60;2.10;;;;;;;;;;5069446;28;20433;-70
2023/06/29 10:23:35;;;;;;;4.53;1.97;;;;;;;;;;5070328;28;20930;-70
2023/06/29 10:26:01;;;;;;;2.30;2.30;;;;;;;;;;5069702;28;21040;-69
2023/06/29 10:28:27;;;;;;;3.23;2.47;;;;;;;;;;5069953;28;20464;-70
2023/06/29 10:30:58;;;;;;;2.53;2.43;;;;;;;;;;5069690;28;20496;-70
2023/06/29 10:33:24;;;;;;;3.97;2.20;;;;;;;;;;5050716;28;21018;-70
2023/06/29 10:36:01;;;;;;;2.27;2.17;;;;;;;;;;5067623;28;20451;-70
2023/06/29 10:38:45;;;;;;;2.30;2.10;;;;;;;;;;5069934;28;20441;-69
2023/06/29 10:41:25;;;;;;;1.87;1.73;;;;;;;;;;5069070;28;20871;-69
2023/06/29 10:43:58;;;;;;;2.80;2.47;;;;;;;;;;5069518;28;20409;-70
2023/06/29 10:46:42;;;;;;;3.07;2.40;;;;;;;;;;5070169;28;20781;-70
2023/06/29 10:49:19;;;;;;;2.80;2.53;;;;;;;;;;5080508;28;20918;-70
2023/06/29 10:51:53;;;;;;;3.20;1.97;;;;;;;;;;5089554;28;20515;-70
2023/06/29 10:54:22;;;;;;;4.50;2.83;;;;;;;;;;5090111;28;20492;-70
2023/06/29 10:56:56;;;;;;;3.60;2.50;;;;;;;;;;5090017;28;20448;-70
2023/06/29 10:59:22;;;;;;;1.97;1.97;;;;;;;;;;5089167;28;20879;-71
2023/06/29 11:01:49;;;;;;;2.73;2.53;;;;;;;;;;5085918;28;20432;-70
2023/06/29 11:04:16;;;;;;;2.33;2.23;;;;;;;;;;5088416;28;20443;-70
2023/06/29 11:06:42;;;;;;;2.73;2.53;;;;;;;;;;5086743;28;20433;-69
2023/06/29 11:09:12;;;;;;;3.10;2.67;;;;;;;;;;5088678;28;20427;-70
2023/06/29 11:11:38;;;;;;;7.43;2.13;;;;;;;;;;5088665;28;20774;-70
2023/06/29 11:14:04;;;;;;;2.40;2.30;;;;;;;;;;5089014;28;20439;-69
2023/06/29 11:16:31;;;;;;;3.60;2.37;;;;;;;;;;5087732;28;20437;-70
2023/06/29 11:18:57;;;;;;;2.10;2.00;;;;;;;;;;5084608;28;20428;-70
2023/06/29 11:21:26;;;;;;;2.73;2.63;;;;;;;;;;5087168;28;20648;-70
2023/06/29 11:23:53;;;;;;;6.33;2.50;;;;;;;;;;5086003;28;20448;-70
2023/06/29 11:26:20;;;;;;;2.53;2.43;;;;;;;;;;5085033;28;20428;-70
2023/06/29 11:28:48;;;;;;;4.63;2.60;;;;;;;;;;5087829;28;20421;-70
2023/06/29 11:31:16;;;;;;;6.43;2.37;;;;;;;;;;5085887;28;20928;-69
2023/06/29 11:33:48;;;;;;;8.73;2.13;;;;;;;;;;5087691;28;20476;-69
2023/06/29 11:36:14;;;;;;;2.80;2.60;;;;;;;;;;5088378;28;20429;-70
2023/06/29 11:38:40;;;;;;;5.90;2.53;;;;;;;;;;5087860;28;20424;-64
2023/06/29 11:41:06;;;;;;;5.43;2.33;;;;;;;;;;5087532;28;20409;-70
2023/06/29 11:43:33;;;;;;;4.20;3.13;;;;;;;;;;5088394;28;20412;-70
2023/06/29 11:45:59;;;;;;;8.43;2.97;;;;;;;;;;5088587;28;20412;-70
2023/06/29 11:48:25;;;;;;;2.70;2.53;;;;;;;;;;5080269;28;20476;-70
2023/06/29 11:50:51;;;;;;;2.70;2.60;;;;;;;;;;5068096;28;20801;-70
2023/06/29 11:53:17;;;;;;;4.27;3.60;;;;;;;;;;5068268;28;20481;-70
2023/06/29 11:55:54;;;;;;;3.17;2.97;;;;;;;;;;5069013;28;20421;-70
2023/06/29 11:58:20;;;;;;;4.30;2.70;;;;;;;;;;5067493;28;20429;-70
2023/06/29 12:00:56;;;;;;;7.73;2.90;;;;;;;;;;5068782;28;20436;-70
2023/06/29 12:03:23;;;;;;;5.80;3.00;;;;;;;;;;5067614;28;20930;-70
2023/06/29 12:05:49;;;;;;;3.50;3.30;;;;;;;;;;5068059;28;20429;-70
2023/06/29 12:08:15;;;;;;;5.83;2.90;;;;;;;;;;5069311;28;20426;-70
2023/06/29 12:10:41;;;;;;;3.80;3.50;;;;;;;;;;5072295;28;20425;-70
2023/06/29 12:13:09;;;;;;;3.47;3.27;;;;;;;;;;5072223;28;22068;-70
2023/06/29 12:15:35;;;;;;;6.33;2.90;;;;;;;;;;5072555;28;20459;-70
2023/06/29 12:18:15;;;;;;;2.93;2.70;;;;;;;;;;5070778;28;20449;-69
2023/06/29 12:20:42;;;;;;;3.57;3.20;;;;;;;;;;5072003;28;20421;-70
2023/06/29 12:23:08;;;;;;;3.30;3.00;;;;;;;;;;5072272;28;20437;-69
2023/06/29 12:25:41;;;;;;;2.47;2.37;;;;;;;;;;5070616;28;20425;-70
2023/06/29 12:28:07;;;;;;;4.37;3.03;;;;;;;;;;5070148;28;20421;-69
2023/06/29 12:30:33;;;;;;;4.43;2.53;;;;;;;;;;5072807;28;20782;-70
2023/06/29 12:33:00;;;;;;;2.67;2.57;;;;;;;;;;5071841;28;20565;-70
2023/06/29 12:35:26;;;;;;;7.60;3.23;;;;;;;;;;5071082;28;21036;-70
2023/06/29 12:37:53;;;;;;;4.47;3.37;;;;;;;;;;5053487;28;20700;-70
2023/06/29 12:40:19;;;;;;;2.90;2.60;;;;;;;;;;5072355;28;20789;-70
2023/06/29 12:42:45;;;;;;;6.43;3.47;;;;;;;;;;5071041;28;20941;-70
2023/06/29 12:45:12;;;;;;;2.97;2.87;;;;;;;;;;5072017;28;21122;-70
2023/06/29 12:47:38;;;;;;;3.40;3.10;;;;;;;;;;5071541;28;20482;-70
2023/06/29 12:50:04;;;;;;;2.30;2.30;;;;;;;;;;5054224;28;20426;-70
2023/06/29 12:52:30;;;;;;;6.13;2.40;;;;;;;;;;5072110;28;20554;-70
2023/06/29 12:54:56;;;;;;;3.57;3.30;;;;;;;;;;5070449;28;20479;-69
2023/06/29 12:57:25;;;;;;;5.10;3.30;;;;;;;;;;5053523;28;20441;-69
2023/06/29 12:59:52;;;;;;;3.10;3.00;;;;;;;;;;5071052;28;20437;-70
2023/06/29 13:02:18;;;;;;;5.07;3.90;;;;;;;;;;5053398;28;20466;-70
2023/06/29 13:04:44;;;;;;;4.00;3.10;;;;;;;;;;5071131;28;20468;-70
2023/06/29 13:07:11;;;;;;;3.60;3.40;;;;;;;;;;5069011;28;20440;-70
2023/06/29 13:09:37;;;;;;;3.30;3.10;;;;;;;;;;5068971;28;20437;-70
2023/06/29 13:12:04;;;;;;;4.73;3.60;;;;;;;;;;5064808;28;20537;-70
2023/06/29 13:14:30;;;;;;;3.83;2.90;;;;;;;;;;5069026;28;20441;-69
2023/06/29 13:16:57;;;;;;;3.87;3.43;;;;;;;;;;5071465;28;20800;-70
2023/06/29 13:19:23;;;;;;;8.60;3.73;;;;;;;;;;5069772;28;20787;-70
2023/06/29 13:21:49;;;;;;;8.10;3.60;;;;;;;;;;5070045;28;20421;-70
2023/06/29 13:24:15;;;;;;;4.13;2.60;;;;;;;;;;5069782;28;20434;-70
2023/06/29 13:26:41;;;;;;;13.70;3.27;;;;;;;;;;5071445;28;20418;-70
2023/06/29 13:29:07;;;;;;;4.73;3.87;;;;;;;;;;5071208;28;20512;-70
2023/06/29 13:31:33;;;;;;;4.50;3.13;;;;;;;;;;5071422;28;20785;-70
2023/06/29 13:33:59;;;;;;;5.53;3.83;;;;;;;;;;5070816;28;20571;-70
2023/06/29 13:36:25;;;;;;;4.70;3.93;;;;;;;;;;5071218;28;20505;-70
2023/06/29 13:38:51;;;;;;;3.87;3.60;;;;;;;;;;5070113;28;20429;-70
2023/06/29 13:41:19;;;;;;;4.57;4.10;;;;;;;;;;5071394;28;20466;-70
2023/06/29 13:43:45;;;;;;;7.70;5.20;;;;;;;;;;5071107;28;21159;-70
2023/06/29 13:46:11;;;;;;;5.03;4.40;;;;;;;;;;5071030;28;20437;-69
2023/06/29 13:48:37;;;;;;;8.07;3.97;;;;;;;;;;5069811;28;20480;-70
2023/06/29 13:51:03;;;;;;;4.00;3.67;;;;;;;;;;5070363;28;20436;-70
2023/06/29 13:53:30;;;;;;;6.10;3.80;;;;;;;;;;5070951;28;20551;-70
2023/06/29 13:55:56;;;;;;;4.10;3.80;;;;;;;;;;5053111;28;20460;-70
2023/06/29 13:58:22;;;;;;;7.70;4.70;;;;;;;;;;5070978;28;20461;-69
2023/06/29 14:00:50;;;;;;;8.60;3.97;;;;;;;;;;5070861;28;20425;-70
2023/06/29 14:03:16;;;;;;;7.50;4.77;;;;;;;;;;5070054;28;20534;-70
2023/06/29 14:05:42;;;;;;;4.20;3.90;;;;;;;;;;5069829;28;20475;-70
2023/06/29 14:08:07;;;;;;;7.10;4.43;;;;;;;;;;5070309;28;20436;-70
2023/06/29 14:10:33;;;;;;;7.43;4.17;;;;;;;;;;5070453;28;20429;-70
2023/06/29 14:12:59;;;;;;;8.70;4.10;;;;;;;;;;5052720;28;20484;-69
2023/06/29 14:15:25;;;;;;;4.03;3.80;;;;;;;;;;5070431;28;20468;-70
2023/06/29 14:17:51;;;;;;;4.90;4.57;;;;;;;;;;5070587;28;20437;-70
2023/06/29 14:20:17;;;;;;;5.30;4.33;;;;;;;;;;5051637;28;20436;-70
2023/06/29 14:22:43;;;;;;;3.80;3.70;;;;;;;;;;5070186;28;20900;-70
2023/06/29 14:25:09;;;;;;;8.23;4.00;;;;;;;;;;5070317;28;20425;-70
2023/06/29 14:27:36;;;;;;;7.10;4.70;;;;;;;;;;5070151;28;20425;-70
2023/06/29 14:30:01;;;;;;;3.57;3.27;;;;;;;;;;5070343;28;20421;-70
2023/06/29 14:32:27;;;;;;;6.57;5.90;;;;;;;;;;5069669;28;20522;-70
2023/06/29 14:34:53;;;;;;;2.73;2.63;;;;;;;;;;5069874;28;20442;-70
2023/06/29 14:37:19;;;;;;;8.20;3.53;;;;;;;;;;5069452;28;20434;-70
2023/06/29 14:39:45;;;;;;;5.50;5.00;;;;;;;;;;5070428;28;20453;-70
2023/06/29 14:42:11;;;;;;;5.57;5.10;;;;;;;;;;5070018;28;21105;-70